Taisho Maru — JI3307 — position and weather

sailwx.info

Track history (hours):
 
Tides and Currents Weather Stations Pressure Air Temp Water Temp Dewpoint Dewpoint Depression Visibility Wind Speed Wind Dir Waves Ship Positions

Taisho Maru

Last reported at 2015-Sep-03 12:30 UTC. Time now 2015-Sep-03 12:58 UTC.
Position N 34°40' E 135°27'.

Length 93 m; draft 4.8 m.

Type: Cargo ship. MMSI: 431300084.

Date/timePositionNaut miles runAvg speedWind from/ knotsBaromVisibWave heightAir tempDewpointWater temp
2015-Sep-03 12:30N 34°40' E 135°27'0 0.0
2015-Sep-03 11:30N 34°40' E 135°27'0 0.0
2015-Sep-03 10:30N 34°40' E 135°27'0 0.0
2015-Sep-03 09:30N 34°40' E 135°27'0 0.0
2015-Sep-03 08:30N 34°40' E 135°27'0 0.0
2015-Sep-03 07:18N 34°40' E 135°27'0 0.0
2015-Sep-03 06:30N 34°40' E 135°27'0 0.3
2015-Sep-03 05:32N 34°40' E 135°27'5 5.5
2015-Sep-03 04:33N 34°37' E 135°21'2 0.9
2015-Sep-03 02:33N 34°36' E 135°19'6 5.6
2015-Sep-03 01:29N 34°32' E 135°15'1112.0
2015-Sep-03 00:33N 34°23' E 135°05'1212.4
2015-Sep-02 23:33N 34°12' E 134°60'11 0.3
2015-Sep-01 13:32N 34°01' E 134°55'1413.8
2015-Sep-01 12:33N 34°15' E 134°58'1212.2
2015-Sep-01 11:33N 34°25' E 135°05'1414.6
2015-Sep-01 10:33N 34°35' E 135°17'9 6.4
2015-Sep-01 09:08N 34°40' E 135°27'0 0.0
2015-Sep-01 08:32N 34°40' E 135°27'0 0.0
2015-Sep-01 07:32N 34°40' E 135°27'0 0.0
2015-Sep-01 05:20N 34°40' E 135°27'0 0.0
2015-Sep-01 04:32N 34°40' E 135°27'0 0.0
2015-Sep-01 03:32N 34°40' E 135°27'0 0.0
2015-Sep-01 02:32N 34°40' E 135°27'0 0.0
2015-Sep-01 01:32N 34°40' E 135°27'0 0.0
2015-Sep-01 00:32N 34°40' E 135°27'0 0.0
2015-Aug-31 23:26N 34°40' E 135°27'1 1.5
2015-Aug-31 22:33N 34°39' E 135°26'6 5.6
2015-Aug-31 21:28N 34°36' E 135°19'0 0.1
2015-Aug-31 20:22N 34°36' E 135°19'0 0.0
2015-Aug-31 19:28N 34°36' E 135°19'0 0.0
2015-Aug-31 18:22N 34°36' E 135°19'0 0.1
2015-Aug-31 17:28N 34°36' E 135°19'0 0.0
2015-Aug-31 16:32N 34°36' E 135°19'8 7.8
2015-Aug-31 15:33N 34°35' E 135°10'1211.4
2015-Aug-31 14:31N 34°36' E 134°56'1211.5
2015-Aug-31 13:28N 34°40' E 134°42'28 1.7
2015-Aug-30 21:15N 34°16' E 134°60'710.2
2015-Aug-30 20:34N 34°14' E 135°08'0 0.1
2015-Aug-30 19:31N 34°14' E 135°08'0 0.1
2015-Aug-30 18:31N 34°14' E 135°08'0 0.0
2015-Aug-30 17:31N 34°14' E 135°08'0 0.1
2015-Aug-30 16:31N 34°14' E 135°08'3 3.0
2015-Aug-30 15:34N 34°13' E 135°05'5 5.3
2015-Aug-30 14:33N 34°09' E 135°09'0 0.0
2015-Aug-30 13:33N 34°09' E 135°09'0 0.0
2015-Aug-30 12:33N 34°09' E 135°09'0 0.0
2015-Aug-30 11:30N 34°09' E 135°09'0 0.0
2015-Aug-30 10:33N 34°09' E 135°09'0 0.0
2015-Aug-30 09:33N 34°09' E 135°09'0 0.0
2015-Aug-30 08:33N 34°09' E 135°09'0 0.1
2015-Aug-30 07:33N 34°09' E 135°09'0 0.0
2015-Aug-30 06:33N 34°09' E 135°09'0 0.0
2015-Aug-30 05:33N 34°09' E 135°09'0 0.0
2015-Aug-30 04:33N 34°09' E 135°09'0 0.0
2015-Aug-30 03:33N 34°09' E 135°09'6 5.7
2015-Aug-30 02:32N 34°07' E 135°03'24011.5
2015-Aug-29 05:33N 35°10' E 139°45'1211.9
2015-Aug-29 04:33N 35°22' E 139°43'1312.7
2015-Aug-29 03:34N 35°32' E 139°51'7 7.0
2015-Aug-29 02:33N 35°38' E 139°45'0 0.0
2015-Aug-29 01:18N 35°38' E 139°45'0 0.0
2015-Aug-29 00:30N 35°38' E 139°45'0 0.0
2015-Aug-28 23:33N 35°38' E 139°45'0 0.0
2015-Aug-28 22:33N 35°38' E 139°45'0 0.0
2015-Aug-28 21:27N 35°38' E 139°45'0 0.0
2015-Aug-28 20:33N 35°38' E 139°45'0 0.0
2015-Aug-28 19:30N 35°38' E 139°45'0 0.0
2015-Aug-28 18:30N 35°38' E 139°45'0 0.0
2015-Aug-28 17:30N 35°38' E 139°45'0 0.0
2015-Aug-28 16:33N 35°38' E 139°45'0 0.0
2015-Aug-28 15:33N 35°38' E 139°45'0 0.0
2015-Aug-28 14:30N 35°38' E 139°45'0 0.0
2015-Aug-28 13:33N 35°38' E 139°45'0 0.0
2015-Aug-28 12:33N 35°38' E 139°45'0 0.0
2015-Aug-28 11:33N 35°38' E 139°45'0 0.0
2015-Aug-28 10:33N 35°38' E 139°45'0 0.0
2015-Aug-28 09:24N 35°38' E 139°45'2 2.7
2015-Aug-28 08:34N 35°36' E 139°47'9 8.8
2015-Aug-28 07:34N 35°28' E 139°50'8 8.0
2015-Aug-28 06:33N 35°29' E 139°40'0 0.0
2015-Aug-28 05:33N 35°29' E 139°40'0 0.0
2015-Aug-28 04:33N 35°29' E 139°40'0 0.0
2015-Aug-28 03:34N 35°29' E 139°40'0 0.0
2015-Aug-28 02:34N 35°29' E 139°40'0 0.0
2015-Aug-28 01:34N 35°29' E 139°40'0 0.0
2015-Aug-28 00:34N 35°29' E 139°40'0 0.0
2015-Aug-27 23:34N 35°29' E 139°40'0 0.0
2015-Aug-27 22:34N 35°29' E 139°40'3 3.0
2015-Aug-27 21:34N 35°26' E 139°42'1 1.0
2015-Aug-27 20:31N 35°25' E 139°42'0 0.0
2015-Aug-27 19:32N 35°25' E 139°42'0 0.1
2015-Aug-27 18:32N 35°25' E 139°42'0 0.0
2015-Aug-27 17:33N 35°25' E 139°42'1111.2
2015-Aug-27 16:33N 35°15' E 139°47'1211.6
2015-Aug-27 15:33N 35°04' E 139°43'  
Track history (hours):
 
Tides and Currents Weather Stations Pressure Air Temp Water Temp Dewpoint Dewpoint Depression Visibility Wind Speed Wind Dir Waves Ship Positions

Taisho Maru

Last reported at 2015-Sep-03 12:30 UTC. Time now 2015-Sep-03 12:59 UTC.
Position N 34°40' E 135°27'.

Length 93 m; draft 4.8 m.

Type: Cargo ship. MMSI: 431300084.

Date/timePositionNaut miles runAvg speedWind from/ knotsBaromVisibWave heightAir tempDewpointWater temp
2015-Sep-03 12:30N 34°40' E 135°27'0 0.0
2015-Sep-03 11:30N 34°40' E 135°27'0 0.0
2015-Sep-03 10:30N 34°40' E 135°27'0 0.0
2015-Sep-03 09:30N 34°40' E 135°27'0 0.0
2015-Sep-03 08:30N 34°40' E 135°27'0 0.0
2015-Sep-03 07:18N 34°40' E 135°27'0 0.0
2015-Sep-03 06:30N 34°40' E 135°27'0 0.3
2015-Sep-03 05:32N 34°40' E 135°27'5 5.5
2015-Sep-03 04:33N 34°37' E 135°21'2 0.9
2015-Sep-03 02:33N 34°36' E 135°19'6 5.6
2015-Sep-03 01:29N 34°32' E 135°15'1112.0
2015-Sep-03 00:33N 34°23' E 135°05'1212.4
2015-Sep-02 23:33N 34°12' E 134°60'11 0.3
2015-Sep-01 13:32N 34°01' E 134°55'1413.8
2015-Sep-01 12:33N 34°15' E 134°58'1212.2
2015-Sep-01 11:33N 34°25' E 135°05'1414.6
2015-Sep-01 10:33N 34°35' E 135°17'9 6.4
2015-Sep-01 09:08N 34°40' E 135°27'0 0.0
2015-Sep-01 08:32N 34°40' E 135°27'0 0.0
2015-Sep-01 07:32N 34°40' E 135°27'0 0.0
2015-Sep-01 05:20N 34°40' E 135°27'0 0.0
2015-Sep-01 04:32N 34°40' E 135°27'0 0.0
2015-Sep-01 03:32N 34°40' E 135°27'0 0.0
2015-Sep-01 02:32N 34°40' E 135°27'0 0.0
2015-Sep-01 01:32N 34°40' E 135°27'0 0.0
2015-Sep-01 00:32N 34°40' E 135°27'0 0.0
2015-Aug-31 23:26N 34°40' E 135°27'1 1.5
2015-Aug-31 22:33N 34°39' E 135°26'6 5.6
2015-Aug-31 21:28N 34°36' E 135°19'0 0.1
2015-Aug-31 20:22N 34°36' E 135°19'0 0.0
2015-Aug-31 19:28N 34°36' E 135°19'0 0.0
2015-Aug-31 18:22N 34°36' E 135°19'0 0.1
2015-Aug-31 17:28N 34°36' E 135°19'0 0.0
2015-Aug-31 16:32N 34°36' E 135°19'8 7.8
2015-Aug-31 15:33N 34°35' E 135°10'1211.4
2015-Aug-31 14:31N 34°36' E 134°56'1211.5
2015-Aug-31 13:28N 34°40' E 134°42'28 1.7
2015-Aug-30 21:15N 34°16' E 134°60'710.2
2015-Aug-30 20:34N 34°14' E 135°08'0 0.1
2015-Aug-30 19:31N 34°14' E 135°08'0 0.1
2015-Aug-30 18:31N 34°14' E 135°08'0 0.0
2015-Aug-30 17:31N 34°14' E 135°08'0 0.1
2015-Aug-30 16:31N 34°14' E 135°08'3 3.0
2015-Aug-30 15:34N 34°13' E 135°05'5 5.3
2015-Aug-30 14:33N 34°09' E 135°09'0 0.0
2015-Aug-30 13:33N 34°09' E 135°09'0 0.0
2015-Aug-30 12:33N 34°09' E 135°09'0 0.0
2015-Aug-30 11:30N 34°09' E 135°09'0 0.0
2015-Aug-30 10:33N 34°09' E 135°09'0 0.0
2015-Aug-30 09:33N 34°09' E 135°09'0 0.0
2015-Aug-30 08:33N 34°09' E 135°09'0 0.1
2015-Aug-30 07:33N 34°09' E 135°09'0 0.0
2015-Aug-30 06:33N 34°09' E 135°09'0 0.0
2015-Aug-30 05:33N 34°09' E 135°09'0 0.0
2015-Aug-30 04:33N 34°09' E 135°09'0 0.0
2015-Aug-30 03:33N 34°09' E 135°09'6 5.7
2015-Aug-30 02:32N 34°07' E 135°03'24011.5
2015-Aug-29 05:33N 35°10' E 139°45'1211.9
2015-Aug-29 04:33N 35°22' E 139°43'1312.7
2015-Aug-29 03:34N 35°32' E 139°51'7 7.0
2015-Aug-29 02:33N 35°38' E 139°45'0 0.0
2015-Aug-29 01:18N 35°38' E 139°45'0 0.0
2015-Aug-29 00:30N 35°38' E 139°45'0 0.0
2015-Aug-28 23:33N 35°38' E 139°45'0 0.0
2015-Aug-28 22:33N 35°38' E 139°45'0 0.0
2015-Aug-28 21:27N 35°38' E 139°45'0 0.0
2015-Aug-28 20:33N 35°38' E 139°45'0 0.0
2015-Aug-28 19:30N 35°38' E 139°45'0 0.0
2015-Aug-28 18:30N 35°38' E 139°45'0 0.0
2015-Aug-28 17:30N 35°38' E 139°45'0 0.0
2015-Aug-28 16:33N 35°38' E 139°45'0 0.0
2015-Aug-28 15:33N 35°38' E 139°45'0 0.0
2015-Aug-28 14:30N 35°38' E 139°45'0 0.0
2015-Aug-28 13:33N 35°38' E 139°45'0 0.0
2015-Aug-28 12:33N 35°38' E 139°45'0 0.0
2015-Aug-28 11:33N 35°38' E 139°45'0 0.0
2015-Aug-28 10:33N 35°38' E 139°45'0 0.0
2015-Aug-28 09:24N 35°38' E 139°45'2 2.7
2015-Aug-28 08:34N 35°36' E 139°47'9 8.8
2015-Aug-28 07:34N 35°28' E 139°50'8 8.0
2015-Aug-28 06:33N 35°29' E 139°40'0 0.0
2015-Aug-28 05:33N 35°29' E 139°40'0 0.0
2015-Aug-28 04:33N 35°29' E 139°40'0 0.0
2015-Aug-28 03:34N 35°29' E 139°40'0 0.0
2015-Aug-28 02:34N 35°29' E 139°40'0 0.0
2015-Aug-28 01:34N 35°29' E 139°40'0 0.0
2015-Aug-28 00:34N 35°29' E 139°40'0 0.0
2015-Aug-27 23:34N 35°29' E 139°40'0 0.0
2015-Aug-27 22:34N 35°29' E 139°40'3 3.0
2015-Aug-27 21:34N 35°26' E 139°42'1 1.0
2015-Aug-27 20:31N 35°25' E 139°42'0 0.0
2015-Aug-27 19:32N 35°25' E 139°42'0 0.1
2015-Aug-27 18:32N 35°25' E 139°42'0 0.0
2015-Aug-27 17:33N 35°25' E 139°42'1111.2
2015-Aug-27 16:33N 35°15' E 139°47'1211.6
2015-Aug-27 15:33N 35°04' E 139°43'  

Dump ship's entire track history